Arlington, MA (02474)

11:46 AM EST on January 31, 2015 (GMT -0500)
Arlington Center | Change Station
CLOSE
Current Station
Personal Weather Station
Location: Arlington, MA
Elevation: 43 ft
Nearby Weather Stations
Active Advisory: Winter Storm Watch

Elev 43 ft 42.41 °N, 71.15 °W | Updated 4 seconds ago

Mostly Cloudy
Mostly Cloudy
18.9 °F
Feels Like 8 °F
N
9.0
Wind Variable Wind from NNE
Gusts 15.0 mph

Today
High -- | Low -- °F
--% Chance of Precip.
Yesterday
High -- | Low -- °F
Precip. -- in
6:59 AM 4:56 PM
Waxing Gibbous, 90% visible
Pressure 29.92 in
Visibility 10.0 miles
Clouds Overcast 7500 ft
Windchill 8 °F
Dew Point -5 °F
Humidity 34%
Rainfall 0.00 in
Snow Depth Not available.
UV 1 out of 12
Pollen .10 out of 12
Air Quality Not available.
Flu Activity Not available.
METAR KBED 311556Z AUTO 31016G25KT 10SM OVC075 M09/M21 A2987 RMK AO2 PK WND 32037/1512 SLP132 T10941206 TSNO

More Conditions Fewer Conditions

Pressure 29.92 in
Visibility 10.0 miles
Clouds Overcast 7500 ft
Windchill 8 °F
Dew Point -5 °F
Humidity 34%
Rainfall 0.00 in
Snow Depth Not available.
UV 1 out of 12
Pollen .10 out of 12
Air Quality Not available.
Flu Activity Not available.
METAR KBED 311556Z AUTO 31016G25KT 10SM OVC075 M09/M21 A2987 RMK AO2 PK WND 32037/1512 SLP132 T10941206 TSNO

More Conditions Fewer Conditions

10-Day Weather Forecast

Almanac

Astronomy

Jan. 31, 2015 Rise Set
Actual Time
Civil Twilight
Nautical Twilight
Astronomical Twilight
Moon
Length of Visible Light
Length of Day
Tomorrow will be .
, % of the Moon is Illuminated

Today's Extremes

State Highs State Lows

Community

WunderPhotos

Upload Photos

1,792,105 photos uploaded!

WunderBlogs® & News

Nearby

Air Quality

  Air Quality AQ Index Pollutant
Not available.

Snow Depth

Station Depth Elevation

Earthquake Activity

City Distance Mag. Time & Date
Minimum magnitude displayed is 2.5.

Coastal Water Temperatures

Place Temperature

Nearby Weather Stations